createdAt,value
2018-09-19T00:01:05.312Z,95907.02
2018-09-19T00:03:31.290Z,95903.84
2018-09-19T00:05:57.284Z,95907.98
2018-09-19T00:08:23.274Z,95908.39
2018-09-19T00:10:49.249Z,95899.13
2018-09-19T00:13:15.235Z,95902.05
2018-09-19T00:15:41.214Z,95896.53
2018-09-19T00:18:07.189Z,95896.94
2018-09-19T00:20:33.168Z,95901.48
2018-09-19T00:22:59.142Z,95900.67
2018-09-19T00:25:25.123Z,95899.70
2018-09-19T00:27:51.110Z,95901.68
2018-09-19T00:30:17.092Z,95905.01
2018-09-19T00:32:43.076Z,95904.03
2018-09-19T00:35:09.116Z,95902.66
2018-09-19T00:37:35.039Z,95902.81
2018-09-19T00:40:01.024Z,95905.98
2018-09-19T00:42:27.010Z,95901.84
2018-09-19T00:44:52.983Z,95905.98
2018-09-19T00:47:18.960Z,95904.60
2018-09-19T00:49:44.943Z,95907.77
2018-09-19T00:52:10.937Z,95903.62
2018-09-19T00:54:36.937Z,95906.39
2018-09-19T00:57:02.974Z,95901.84
2018-09-19T00:59:28.994Z,95906.39
2018-09-19T01:01:54.972Z,95900.05
2018-09-19T01:04:20.947Z,95893.95
2018-09-19T01:06:46.927Z,95900.46
2018-09-19T01:09:12.910Z,95900.86
2018-09-19T01:11:38.891Z,95902.81
2018-09-19T01:14:04.950Z,95897.70
2018-09-19T01:16:30.939Z,95897.29
2018-09-19T01:18:56.915Z,95887.63
2018-09-19T01:21:22.904Z,95892.33
2018-09-19T01:23:48.889Z,95890.55
2018-09-19T01:26:14.861Z,95886.80
2018-09-19T01:28:40.845Z,95885.42
2018-09-19T01:31:06.823Z,95889.98
2018-09-19T01:33:32.810Z,95881.88
2018-09-19T01:35:58.825Z,95880.09
2018-09-19T01:38:24.857Z,95876.73
2018-09-19T01:40:50.864Z,95885.02
2018-09-19T01:43:16.832Z,95878.11
2018-09-19T01:45:42.808Z,95879.49
2018-09-19T01:48:08.790Z,95882.86
2018-09-19T01:50:34.777Z,95881.28
2018-09-19T01:53:00.767Z,95884.64
2018-09-19T01:55:26.753Z,95883.27
2018-09-19T01:57:52.734Z,95881.88
2018-09-19T02:00:18.717Z,95881.88
2018-09-19T02:02:44.693Z,95878.71
2018-09-19T02:05:10.677Z,95886.02
2018-09-19T02:07:36.653Z,95881.06
2018-09-19T02:10:02.636Z,95883.42
2018-09-19T02:12:28.653Z,95881.06
2018-09-19T02:14:54.693Z,95883.42
2018-09-19T02:17:20.641Z,95879.84
2018-09-19T02:19:46.634Z,95887.56
2018-09-19T02:22:12.631Z,95891.71
2018-09-19T02:24:38.612Z,95892.52
2018-09-19T02:27:04.592Z,95896.83
2018-09-19T02:29:30.576Z,95893.50
2018-09-19T02:31:56.554Z,95894.47
2018-09-19T02:34:22.533Z,95889.92
2018-09-19T02:36:48.527Z,95883.21
2018-09-19T02:39:14.497Z,95882.61
2018-09-19T02:41:40.483Z,95884.97
2018-09-19T02:44:06.457Z,95884.59
2018-09-19T02:46:32.491Z,95888.14
2018-09-19T02:48:58.475Z,95890.69
2018-09-19T02:51:24.460Z,95893.25
2018-09-19T02:53:50.443Z,95893.25
2018-09-19T02:56:16.417Z,95884.97
2018-09-19T02:58:42.397Z,95896.02
2018-09-19T03:01:08.395Z,95890.49
2018-09-19T03:03:34.391Z,95891.09
2018-09-19T03:06:00.367Z,95886.95
2018-09-19T03:08:26.362Z,95889.70
2018-09-19T03:10:52.347Z,95886.54
2018-09-19T03:13:18.334Z,95888.73
2018-09-19T03:15:44.368Z,95886.95
2018-09-19T03:18:10.340Z,95886.13
2018-09-19T03:20:36.325Z,95887.52
2018-09-19T03:23:02.315Z,95886.70
2018-09-19T03:25:28.296Z,95887.11
2018-09-19T03:27:54.274Z,95889.88
2018-09-19T03:30:20.310Z,95887.11
2018-09-19T03:32:46.277Z,95886.70
2018-09-19T03:35:12.274Z,95882.55
2018-09-19T03:37:38.239Z,95880.77
2018-09-19T03:40:04.228Z,95883.94
2018-09-19T03:42:30.212Z,95885.73
2018-09-19T03:44:56.434Z,95889.05
2018-09-19T03:47:22.407Z,95886.30
2018-09-19T03:49:48.436Z,95891.04
2018-09-19T03:52:14.419Z,95886.70
2018-09-19T03:54:40.398Z,95889.05
2018-09-19T03:57:06.419Z,95888.68
2018-09-19T03:59:32.430Z,95882.15
2018-09-19T04:01:58.379Z,95886.48
2018-09-19T04:04:24.396Z,95884.91
2018-09-19T04:06:50.378Z,95886.89
2018-09-19T04:09:16.348Z,95886.48
2018-09-19T04:11:42.386Z,95885.92
2018-09-19T04:14:08.399Z,95884.70
2018-09-19T04:16:34.410Z,95886.48
2018-09-19T04:19:00.371Z,95883.73
2018-09-19T04:21:26.354Z,95887.47
2018-09-19T04:23:52.339Z,95896.16
2018-09-19T04:26:18.324Z,95890.23
2018-09-19T04:28:44.321Z,95888.84
2018-09-19T04:31:10.301Z,95897.95
2018-09-19T04:33:36.305Z,95889.66
2018-09-19T04:36:02.345Z,95895.59
2018-09-19T04:38:28.333Z,95899.89
2018-09-19T04:40:54.310Z,95902.66
2018-09-19T04:43:20.288Z,95898.35
2018-09-19T04:45:46.289Z,95899.89
2018-09-19T04:48:12.274Z,95900.87
2018-09-19T04:50:38.257Z,95897.12
2018-09-19T04:53:04.244Z,95900.70
2018-09-19T04:55:30.265Z,95902.25
2018-09-19T04:57:56.328Z,95910.94
2018-09-19T05:00:22.358Z,95911.35
2018-09-19T05:02:48.334Z,95910.78
2018-09-19T05:05:14.324Z,95912.54
2018-09-19T05:07:40.320Z,95914.73
2018-09-19T05:10:06.300Z,95912.59
2018-09-19T05:12:32.298Z,95917.20
2018-09-19T05:14:58.294Z,95915.50
2018-09-19T05:17:24.275Z,95911.35
2018-09-19T05:19:50.284Z,95910.18
2018-09-19T05:22:16.292Z,95905.06
2018-09-19T05:24:42.287Z,95902.87
2018-09-19T05:27:08.267Z,95908.80
2018-09-19T05:29:34.275Z,95910.75
2018-09-19T05:32:00.266Z,95911.16
2018-09-19T05:34:26.303Z,95912.13
2018-09-19T05:36:52.314Z,95909.37
2018-09-19T05:39:18.304Z,95913.11
2018-09-19T05:41:44.269Z,95913.70
2018-09-19T05:44:10.283Z,95911.35
2018-09-19T05:46:36.317Z,95917.44
2018-09-19T05:49:02.247Z,95923.54
2018-09-19T05:51:28.239Z,95920.77
2018-09-19T05:53:54.209Z,95918.58
2018-09-19T05:56:20.203Z,95917.60
2018-09-19T05:58:46.186Z,95914.73
2018-09-19T06:01:12.198Z,95921.70
2018-09-19T06:03:38.235Z,95920.94
2018-09-19T06:06:04.161Z,95929.41
2018-09-19T06:08:30.228Z,95929.58
2018-09-19T06:10:56.172Z,95936.08
2018-09-19T06:13:22.171Z,95935.10
2018-09-19T06:15:48.160Z,95936.27
2018-09-19T06:18:14.160Z,95927.98
2018-09-19T06:20:40.143Z,95933.66
2018-09-19T06:23:06.123Z,95932.07
2018-09-19T06:25:32.108Z,95936.22
2018-09-19T06:27:58.099Z,95932.07
2018-09-19T06:30:24.073Z,95936.02
2018-09-19T06:32:50.227Z,95933.45
2018-09-19T06:35:16.149Z,95934.42
2018-09-19T06:37:42.190Z,95936.53
2018-09-19T06:40:08.178Z,95934.12
2018-09-19T06:42:34.158Z,95931.36
2018-09-19T06:45:00.134Z,95932.94
2018-09-19T06:47:26.206Z,95929.17
2018-09-19T06:52:40.254Z,95929.98
2018-09-19T06:55:07.008Z,95927.79
2018-09-19T06:57:33.882Z,95931.93
2018-09-19T07:00:00.627Z,95929.58
2018-09-19T07:02:27.227Z,95927.41
2018-09-19T07:04:53.847Z,95932.69
2018-09-19T07:07:20.919Z,95931.31
2018-09-19T07:09:47.425Z,95935.45
2018-09-19T07:12:14.335Z,95932.28
2018-09-19T07:14:40.729Z,95943.34
2018-09-19T07:17:06.718Z,95935.05
2018-09-19T07:19:32.731Z,95935.23
2018-09-19T07:21:58.720Z,95940.16
2018-09-19T07:24:24.702Z,95941.17
2018-09-19T07:26:50.676Z,95949.46
2018-09-19T07:29:16.664Z,95942.30
2018-09-19T07:31:42.655Z,95947.42
2018-09-19T07:34:08.646Z,95943.88
2018-09-19T07:36:34.633Z,95947.62
2018-09-19T07:39:00.615Z,95943.42
2018-09-19T07:41:26.712Z,95949.67
2018-09-19T07:43:52.684Z,95953.44
2018-09-19T07:46:18.716Z,95948.70
2018-09-19T07:48:44.693Z,95947.10
2018-09-19T07:51:10.688Z,95937.78
2018-09-19T07:53:36.748Z,95940.36
2018-09-19T07:56:02.783Z,95933.91
2018-09-19T07:58:28.765Z,95933.97
2018-09-19T08:00:54.895Z,95938.11
2018-09-19T08:03:20.764Z,95931.02
2018-09-19T08:05:46.736Z,95933.88
2018-09-19T08:08:12.712Z,95932.48
2018-09-19T08:10:38.697Z,95933.20
2018-09-19T08:13:04.710Z,95927.62
2018-09-19T08:15:30.683Z,95934.88
2018-09-19T08:17:56.687Z,95931.61
2018-09-19T08:20:22.668Z,95932.34
2018-09-19T08:22:48.714Z,95931.09
2018-09-19T08:25:14.709Z,95922.92
2018-09-19T08:27:40.624Z,95926.91
2018-09-19T08:30:06.609Z,95927.00
2018-09-19T08:32:32.621Z,95921.98
2018-09-19T08:34:58.633Z,95920.55
2018-09-19T08:37:24.624Z,95915.19
2018-09-19T08:39:50.705Z,95909.61
2018-09-19T08:42:16.706Z,95915.33
2018-09-19T08:44:42.705Z,95911.59
2018-09-19T08:47:08.716Z,95914.92
2018-09-19T08:49:34.695Z,95907.04
2018-09-19T08:52:00.692Z,95905.25
2018-09-19T08:54:26.728Z,95905.66
2018-09-19T08:56:52.680Z,95897.12
2018-09-19T08:59:18.646Z,95900.70
2018-09-19T09:01:44.651Z,95897.53
2018-09-19T09:04:10.643Z,95880.33
2018-09-19T09:06:36.644Z,95890.81
2018-09-19T09:09:02.647Z,95889.03
2018-09-19T09:11:28.644Z,95888.62
2018-09-19T09:13:54.643Z,95890.98
2018-09-19T09:16:20.658Z,95884.61
2018-09-19T09:18:46.615Z,95886.39
2018-09-19T09:21:12.627Z,95879.48
2018-09-19T09:23:38.620Z,95873.55
2018-09-19T09:26:04.649Z,95880.46
2018-09-19T09:28:30.607Z,95875.34
2018-09-19T09:30:56.675Z,95876.31
2018-09-19T09:33:22.614Z,95872.05
2018-09-19T09:35:48.624Z,95863.34
2018-09-19T09:38:14.625Z,95867.90
2018-09-19T09:40:40.606Z,95861.80
2018-09-19T09:43:06.647Z,95866.11
2018-09-19T09:45:32.638Z,95862.99
2018-09-19T09:47:58.656Z,95869.33
2018-09-19T09:50:24.691Z,95862.59
2018-09-19T09:52:50.668Z,95858.49
2018-09-19T09:55:16.676Z,95845.66
2018-09-19T09:57:42.734Z,95840.53
2018-09-19T10:00:08.703Z,95845.89
2018-09-19T10:02:34.716Z,95835.25
2018-09-19T10:05:00.690Z,95840.94
2018-09-19T10:07:26.724Z,95839.55
2018-09-19T10:09:52.748Z,95838.17
2018-09-19T10:12:18.714Z,95835.25
2018-09-19T10:14:44.706Z,95833.27
2018-09-19T10:17:10.702Z,95827.73
2018-09-19T10:19:36.708Z,95829.53
2018-09-19T10:22:02.715Z,95822.05
2018-09-19T10:24:28.711Z,95822.91
2018-09-19T10:26:54.746Z,95821.29
2018-09-19T10:29:20.746Z,95822.67
2018-09-19T10:31:46.719Z,95828.03
2018-09-19T10:34:12.723Z,95827.84
2018-09-19T10:36:38.740Z,95826.13
2018-09-19T10:39:04.740Z,95820.41
2018-09-19T10:41:30.728Z,95813.34
2018-09-19T10:43:56.716Z,95813.75
2018-09-19T10:46:22.730Z,95813.95
2018-09-19T10:48:48.734Z,95804.53
2018-09-19T10:51:14.755Z,95807.30
2018-09-19T10:53:40.751Z,95801.36
2018-09-19T10:56:06.748Z,95804.34
2018-09-19T10:58:32.781Z,95800.44
2018-09-19T11:00:58.777Z,95798.45
2018-09-19T11:03:24.757Z,95796.29
2018-09-19T11:05:50.753Z,95791.90
2018-09-19T11:08:16.746Z,95789.38
2018-09-19T11:10:42.775Z,95786.62
2018-09-19T11:13:08.779Z,95782.27
2018-09-19T11:15:34.788Z,95777.31
2018-09-19T11:18:00.785Z,95776.59
2018-09-19T11:20:26.788Z,95771.22
2018-09-19T11:22:52.774Z,95775.98
2018-09-19T11:25:18.774Z,95768.50
2018-09-19T11:27:44.800Z,95764.77
2018-09-19T11:30:10.818Z,95768.50
2018-09-19T11:32:36.784Z,95764.77
2018-09-19T11:35:02.766Z,95760.45
2018-09-19T11:37:28.772Z,95757.69
2018-09-19T11:39:54.772Z,95750.23
2018-09-19T11:42:21.222Z,95754.78
2018-09-19T11:44:55.435Z,95748.69
2018-09-19T11:47:21.766Z,95746.48
2018-09-19T11:49:47.643Z,95744.13
2018-09-19T11:52:13.668Z,95745.92
2018-09-19T11:54:39.643Z,95732.09
2018-09-19T11:57:05.629Z,95734.50
2018-09-19T11:59:31.637Z,95737.43
2018-09-19T12:01:57.702Z,95735.84
2018-09-19T12:04:23.762Z,95734.45
2018-09-19T12:06:49.714Z,95728.31
2018-09-19T12:09:15.758Z,95725.95
2018-09-19T12:11:41.754Z,95725.71
2018-09-19T12:14:07.750Z,95726.88
2018-09-19T12:16:33.739Z,95717.02
2018-09-19T12:18:59.718Z,95717.99
2018-09-19T12:21:25.697Z,95709.70
2018-09-19T12:23:51.714Z,95708.92
2018-09-19T12:26:17.849Z,95706.73
2018-09-19T12:28:43.795Z,95701.77
2018-09-19T12:31:09.776Z,95699.00
2018-09-19T12:33:35.754Z,95702.58
2018-09-19T12:36:01.887Z,95699.81
2018-09-19T12:38:27.844Z,95695.67
2018-09-19T12:40:53.835Z,95696.65
2018-09-19T12:43:19.862Z,95691.93
2018-09-19T12:45:45.845Z,95691.36
2018-09-19T12:48:11.836Z,95693.31
2018-09-19T12:50:37.833Z,95687.38
2018-09-19T12:53:03.838Z,95687.38
2018-09-19T12:55:29.848Z,95688.19
2018-09-19T12:57:55.820Z,95687.38
2018-09-19T13:00:21.856Z,95681.45
2018-09-19T13:02:47.797Z,95676.89
2018-09-19T13:05:13.798Z,95682.02
2018-09-19T13:07:39.790Z,95677.88
2018-09-19T13:10:10.928Z,95680.43
2018-09-19T13:12:36.924Z,95673.52
2018-09-19T13:15:02.935Z,95671.33
2018-09-19T13:17:28.931Z,95669.94
2018-09-19T13:19:54.965Z,95659.09
2018-09-19T13:22:20.954Z,95657.51
2018-09-19T13:24:47.137Z,95659.49
2018-09-19T13:27:13.155Z,95657.70
2018-09-19T13:29:39.148Z,95658.67
2018-09-19T13:32:05.199Z,95649.58
2018-09-19T13:34:31.177Z,95652.34
2018-09-19T13:36:57.180Z,95650.95
2018-09-19T13:39:23.185Z,95652.17
2018-09-19T13:41:49.190Z,95654.53
2018-09-19T13:44:15.160Z,95648.03
2018-09-19T13:46:41.172Z,95647.22
2018-09-19T13:49:07.187Z,95650.44
2018-09-19T13:51:33.181Z,95650.07
2018-09-19T13:53:59.167Z,95647.52
2018-09-19T13:56:25.165Z,95647.35
2018-09-19T13:58:51.204Z,95642.64
2018-09-19T14:01:17.157Z,95646.78
2018-09-19T14:03:43.165Z,95645.56
2018-09-19T14:06:09.183Z,95637.64
2018-09-19T14:08:35.161Z,95642.59
2018-09-19T14:11:01.173Z,95642.44
2018-09-19T14:13:27.172Z,95646.02
2018-09-19T14:15:53.183Z,95642.64
2018-09-19T14:18:19.187Z,95645.20
2018-09-19T14:20:45.191Z,95644.80
2018-09-19T14:23:11.195Z,95641.66
2018-09-19T14:25:37.200Z,95644.02
2018-09-19T14:28:03.174Z,95643.20
2018-09-19T14:30:29.161Z,95635.48
2018-09-19T14:32:55.147Z,95639.23
2018-09-19T14:35:21.140Z,95635.08
2018-09-19T14:37:47.229Z,95634.51
2018-09-19T14:40:13.202Z,95628.98
2018-09-19T14:42:39.188Z,95628.58
2018-09-19T14:45:05.178Z,95635.89
2018-09-19T14:47:31.170Z,95632.55
2018-09-19T14:49:57.130Z,95636.70
2018-09-19T14:52:23.143Z,95637.89
2018-09-19T14:54:49.128Z,95638.89
2018-09-19T14:57:15.128Z,95639.88
2018-09-19T14:59:41.168Z,95635.32
2018-09-19T15:02:07.160Z,95640.28
2018-09-19T15:04:33.161Z,95637.93
2018-09-19T15:06:59.148Z,95632.41
2018-09-19T15:09:25.126Z,95635.21
2018-09-19T15:11:51.126Z,95635.62
2018-09-19T15:14:17.142Z,95641.14
2018-09-19T15:16:43.275Z,95646.09
2018-09-19T15:19:09.268Z,95641.19
2018-09-19T15:21:35.321Z,95645.21
2018-09-19T15:24:01.312Z,95645.25
2018-09-19T15:26:27.388Z,95648.47
2018-09-19T15:28:53.392Z,95655.34
2018-09-19T15:31:19.404Z,95657.03
2018-09-19T15:33:45.377Z,95657.20
2018-09-19T15:36:11.456Z,95656.18
2018-09-19T15:38:37.388Z,95654.23
2018-09-19T15:41:03.359Z,95659.92
2018-09-19T15:43:29.389Z,95663.50
2018-09-19T15:45:55.384Z,95661.52
2018-09-19T15:48:21.393Z,95660.09
2018-09-19T15:50:47.362Z,95663.05
2018-09-19T15:53:13.347Z,95662.97
2018-09-19T15:55:39.384Z,95661.27
2018-09-19T15:58:05.310Z,95660.09
2018-09-19T16:00:31.354Z,95657.86
2018-09-19T16:02:57.294Z,95656.31
2018-09-19T16:05:23.280Z,95655.29
2018-09-19T16:07:49.282Z,95665.13
2018-09-19T16:10:15.322Z,95660.98
2018-09-19T16:12:41.293Z,95669.23
2018-09-19T16:15:07.354Z,95670.41
2018-09-19T16:17:33.373Z,95672.97
2018-09-19T16:19:59.434Z,95676.34
2018-09-19T16:22:25.424Z,95676.09
2018-09-19T16:24:51.434Z,95677.08
2018-09-19T16:27:17.409Z,95682.84
2018-09-19T16:29:43.484Z,95683.98
2018-09-19T16:32:09.452Z,95686.02
2018-09-19T16:34:35.476Z,95687.48
2018-09-19T16:37:01.421Z,95686.36
2018-09-19T16:39:27.439Z,95689.27
2018-09-19T16:41:53.455Z,95699.56
2018-09-19T16:44:19.436Z,95692.13
2018-09-19T16:46:45.417Z,95695.51
2018-09-19T16:49:11.423Z,95697.34
2018-09-19T16:51:37.417Z,95708.80
2018-09-19T16:54:05.885Z,95701.08
2018-09-19T16:56:31.893Z,95708.16
2018-09-19T16:58:57.899Z,95710.03
2018-09-19T17:01:23.892Z,95717.52
2018-09-19T17:03:49.871Z,95717.70
2018-09-19T17:06:16.303Z,95725.39
2018-09-19T17:08:42.807Z,95725.14
2018-09-19T17:11:08.778Z,95726.13
2018-09-19T17:13:34.808Z,95734.25
2018-09-19T17:16:00.885Z,95737.88
2018-09-19T17:18:26.959Z,95741.73
2018-09-19T17:20:53.012Z,95744.73
2018-09-19T17:23:19.064Z,95749.05
2018-09-19T17:25:45.058Z,95752.80
2018-09-19T17:28:11.033Z,95750.03
2018-09-19T17:30:37.031Z,95751.77
2018-09-19T17:33:03.024Z,95759.30
2018-09-19T17:35:29.046Z,95762.56
2018-09-19T17:37:54.996Z,95767.61
2018-09-19T17:40:21.013Z,95766.80
2018-09-19T17:42:46.998Z,95768.02
2018-09-19T17:45:12.979Z,95770.23
2018-09-19T17:47:38.981Z,95771.53
2018-09-19T17:50:04.961Z,95777.98
2018-09-19T17:52:30.943Z,95777.48
2018-09-19T17:54:56.930Z,95777.84
2018-09-19T17:57:22.911Z,95783.53
2018-09-19T17:59:48.905Z,95787.16
2018-09-19T18:02:14.915Z,95789.92
2018-09-19T18:04:40.860Z,95788.50
2018-09-19T18:07:06.847Z,95788.50
2018-09-19T18:09:32.829Z,95790.23
2018-09-19T18:11:58.813Z,95797.15
2018-09-19T18:14:24.810Z,95791.05
2018-09-19T18:16:50.800Z,95796.95
2018-09-19T18:19:24.445Z,95804.22
2018-09-19T18:21:51.890Z,95810.11
2018-09-19T18:24:17.886Z,95804.94
2018-09-19T18:26:43.885Z,95810.25
2018-09-19T18:29:11.583Z,95805.50
2018-09-19T18:31:37.570Z,95808.63
2018-09-19T18:34:03.646Z,95807.44
2018-09-19T18:36:29.638Z,95811.18
2018-09-19T18:38:56.849Z,95811.34
2018-09-19T18:41:22.842Z,95813.89
2018-09-19T18:43:48.890Z,95809.91
2018-09-19T18:46:14.860Z,95813.84
2018-09-19T18:48:40.853Z,95815.80
2018-09-19T18:51:26.512Z,95819.13
2018-09-19T18:53:52.357Z,95820.92
2018-09-19T18:56:18.378Z,95826.64
2018-09-19T18:58:44.407Z,95826.64
2018-09-19T19:01:10.348Z,95824.04
2018-09-19T19:03:36.328Z,95823.63
2018-09-19T19:06:02.333Z,95824.80
2018-09-19T19:08:28.702Z,95823.83
2018-09-19T19:10:54.669Z,95821.63
2018-09-19T19:13:23.577Z,95827.73
2018-09-19T19:15:49.555Z,95831.06
2018-09-19T19:18:15.533Z,95830.09
2018-09-19T19:20:41.532Z,95829.88
2018-09-19T19:23:07.517Z,95833.20
2018-09-19T19:25:33.499Z,95831.41
2018-09-19T19:27:59.551Z,95829.22
2018-09-19T19:30:25.635Z,95828.84
2018-09-19T19:32:52.282Z,95830.61
2018-09-19T19:35:18.290Z,95825.68
2018-09-19T19:37:44.321Z,95823.32
2018-09-19T19:40:10.260Z,95823.48
2018-09-19T19:42:36.244Z,95823.84
2018-09-19T19:45:02.273Z,95830.75
2018-09-19T19:47:28.269Z,95824.00
2018-09-19T19:49:54.249Z,95830.55
2018-09-19T19:52:20.229Z,95831.52
2018-09-19T19:54:52.076Z,95829.13
2018-09-19T19:57:18.047Z,95824.20
2018-09-19T19:59:44.599Z,95825.58
2018-09-19T20:02:11.239Z,95825.17
2018-09-19T20:04:40.150Z,95821.44
2018-09-19T20:07:06.123Z,95823.22
2018-09-19T20:09:32.132Z,95819.64
2018-09-19T20:11:58.505Z,95823.38
2018-09-19T20:14:24.530Z,95823.84
2018-09-19T20:16:50.482Z,95825.98
2018-09-19T20:19:16.990Z,95825.73
2018-09-19T20:21:42.980Z,95820.62
2018-09-19T20:24:08.978Z,95817.45
2018-09-19T20:26:35.270Z,95818.02
2018-09-19T20:29:01.504Z,95816.88
2018-09-19T20:31:27.494Z,95820.62
2018-09-19T20:33:53.473Z,95819.23
2018-09-19T20:36:22.790Z,95817.23
2018-09-19T20:38:48.756Z,95814.28
2018-09-19T20:41:14.798Z,95816.64
2018-09-19T20:43:40.717Z,95815.86
2018-09-19T20:46:06.717Z,95817.23
2018-09-19T20:48:32.707Z,95816.42
2018-09-19T20:50:58.704Z,95814.48
2018-09-19T20:53:24.701Z,95817.23
2018-09-19T20:55:50.701Z,95815.45
2018-09-19T20:58:16.703Z,95815.86
2018-09-19T21:00:45.501Z,95808.55
2018-09-19T21:03:11.503Z,95820.57
2018-09-19T21:05:37.523Z,95815.05
2018-09-19T21:08:03.502Z,95807.33
2018-09-19T21:10:29.500Z,95811.88
2018-09-19T21:12:55.500Z,95811.88
2018-09-19T21:15:21.505Z,95813.83
2018-09-19T21:17:48.157Z,95817.00
2018-09-19T21:20:14.151Z,95804.56
2018-09-19T21:22:40.317Z,95812.85
2018-09-19T21:25:06.291Z,95815.20
2018-09-19T21:27:32.379Z,95814.23
2018-09-19T21:29:58.323Z,95812.85
2018-09-19T21:32:24.414Z,95806.70
2018-09-19T21:34:50.377Z,95813.05
2018-09-19T21:37:16.385Z,95811.66
2018-09-19T21:39:42.391Z,95815.94
2018-09-19T21:42:08.366Z,95815.41
2018-09-19T21:44:34.376Z,95820.08
2018-09-19T21:47:00.373Z,95820.73
2018-09-19T21:49:26.379Z,95817.32
2018-09-19T21:51:52.378Z,95816.37
2018-09-19T21:54:18.367Z,95812.77
2018-09-19T21:56:44.352Z,95811.39
2018-09-19T21:59:10.335Z,95812.77
2018-09-19T22:01:36.322Z,95813.17
2018-09-19T22:04:02.305Z,95815.41
2018-09-19T22:06:28.278Z,95813.61
2018-09-19T22:08:54.257Z,95814.15
2018-09-19T22:11:20.245Z,95807.24
2018-09-19T22:13:46.231Z,95806.46
2018-09-19T22:16:12.224Z,95807.24
2018-09-19T22:18:38.216Z,95810.85
2018-09-19T22:21:04.196Z,95805.08
2018-09-19T22:23:30.180Z,95805.65
2018-09-19T22:25:56.177Z,95801.18
2018-09-19T22:28:22.162Z,95802.31
2018-09-19T22:30:48.143Z,95805.65
2018-09-19T22:33:14.125Z,95800.53
2018-09-19T22:35:40.107Z,95794.59
2018-09-19T22:38:06.100Z,95796.80
2018-09-19T22:40:32.075Z,95795.98
2018-09-19T22:42:58.056Z,95798.91
2018-09-19T22:45:24.041Z,95798.74
2018-09-19T22:47:50.028Z,95803.05
2018-09-19T22:50:16.011Z,95795.73
2018-09-19T22:52:41.990Z,95798.50
2018-09-19T22:55:07.979Z,95797.72
2018-09-19T22:57:33.980Z,95799.50
2018-09-19T22:59:59.958Z,95799.09
2018-09-19T23:02:26.074Z,95797.88
2018-09-19T23:04:52.051Z,95800.48
2018-09-19T23:07:18.041Z,95797.88
2018-09-19T23:09:44.026Z,95801.05
2018-09-19T23:12:10.012Z,95795.11
2018-09-19T23:14:35.993Z,95789.59
2018-09-19T23:17:01.975Z,95795.69
2018-09-19T23:19:27.952Z,95784.63
2018-09-19T23:21:53.926Z,95778.89
2018-09-19T23:24:19.917Z,95779.71
2018-09-19T23:26:45.917Z,95776.95
2018-09-19T23:29:11.896Z,95773.38
2018-09-19T23:31:37.877Z,95774.75
2018-09-19T23:34:03.858Z,95780.28
2018-09-19T23:36:29.849Z,95777.68
2018-09-19T23:38:55.832Z,95778.09
2018-09-19T23:41:21.862Z,95787.34
2018-09-19T23:43:47.842Z,95783.20
2018-09-19T23:46:13.821Z,95784.17
2018-09-19T23:48:39.793Z,95785.19
2018-09-19T23:51:05.778Z,95783.80
2018-09-19T23:53:31.799Z,95786.56
2018-09-19T23:55:57.750Z,95783.80
2018-09-19T23:58:23.724Z,95785.75
